Time;durP1;ratioP1;P1;durP2;ratioP2;P2;SDS_P1;SDS_P2;PMS_P1;PMS_P2;Temp;Humidity;BMP_temperature;BMP_pressure;BME280_temperature;BME280_humidity;BME280_pressure;Samples;Min_cycle;Max_cycle;Signal;HPM_P1;HPM_P2
2024/01/10 00:01:33;;;;;;;0.70;0.70;;;-5.80;99.90;;;;;;4394235;32;20087;-76
2024/01/10 00:03:59;;;;;;;3.25;2.20;;;-5.80;99.90;;;;;;4395290;32;20612;-76
2024/01/10 00:06:24;;;;;;;3.20;2.90;;;-5.80;99.90;;;;;;4396216;32;20163;-76
2024/01/10 00:08:50;;;;;;;1.52;1.45;;;-5.80;99.90;;;;;;4391659;32;20082;-76
2024/01/10 00:11:16;;;;;;;3.15;2.50;;;-5.80;99.90;;;;;;4393382;32;20090;-76
2024/01/10 00:13:41;;;;;;;2.25;2.08;;;-5.80;99.90;;;;;;4388177;32;20375;-77
2024/01/10 00:16:07;;;;;;;3.72;3.20;;;-5.80;99.90;;;;;;4384108;32;20105;-76
2024/01/10 00:18:33;;;;;;;1.95;1.83;;;-5.80;99.90;;;;;;4385989;32;20066;-77
2024/01/10 00:20:59;;;;;;;0.95;0.95;;;-5.80;99.90;;;;;;4384978;32;20066;-77
2024/01/10 00:23:24;;;;;;;2.58;2.37;;;-5.80;99.90;;;;;;4383843;32;20102;-77
2024/01/10 00:25:50;;;;;;;10.07;4.03;;;-5.80;99.90;;;;;;4386470;32;20133;-77
2024/01/10 00:28:17;;;;;;;4.07;3.15;;;-5.80;99.90;;;;;;4379960;32;20083;-77
2024/01/10 00:30:43;;;;;;;1.52;1.42;;;-5.80;99.90;;;;;;4379148;32;20086;-77
2024/01/10 00:33:09;;;;;;;14.20;3.28;;;-5.80;99.90;;;;;;4380497;32;20073;-77
2024/01/10 00:35:35;;;;;;;1.90;1.62;;;-5.80;99.90;;;;;;4381741;32;20474;-77
2024/01/10 00:38:00;;;;;;;0.82;0.82;;;-5.80;99.90;;;;;;4380029;32;20070;-78
2024/01/10 00:40:26;;;;;;;1.75;1.65;;;-5.80;99.90;;;;;;4380214;32;20598;-77
2024/01/10 00:42:51;;;;;;;20.90;6.10;;;-5.80;99.90;;;;;;4380236;32;20120;-77
2024/01/10 00:45:17;;;;;;;4.53;2.22;;;-5.80;99.90;;;;;;4383900;32;20074;-77
2024/01/10 00:47:42;;;;;;;3.40;2.65;;;-5.80;99.90;;;;;;4383804;32;20138;-77
2024/01/10 00:50:08;;;;;;;9.18;3.20;;;-5.90;99.90;;;;;;4380589;32;20069;-78
2024/01/10 00:52:34;;;;;;;0.70;0.70;;;-5.90;99.90;;;;;;4378819;32;20061;-77
2024/01/10 00:55:00;;;;;;;7.87;4.95;;;-5.90;99.90;;;;;;4382919;32;20529;-77
2024/01/10 00:57:25;;;;;;;2.10;1.98;;;-5.80;99.90;;;;;;4382789;32;20136;-77
2024/01/10 00:59:51;;;;;;;1.67;1.58;;;-5.90;99.90;;;;;;4381247;32;21542;-78
2024/01/10 01:02:17;;;;;;;21.42;6.78;;;-5.90;99.90;;;;;;4381785;32;20459;-77
2024/01/10 01:04:42;;;;;;;1.62;1.52;;;-5.90;99.90;;;;;;4386138;32;20078;-77
2024/01/10 01:07:08;;;;;;;1.70;1.60;;;-5.90;99.90;;;;;;4383827;32;20089;-77
2024/01/10 01:09:34;;;;;;;14.80;5.85;;;-5.90;99.90;;;;;;4382402;32;20090;-77
2024/01/10 01:11:59;;;;;;;6.28;5.12;;;-5.80;99.90;;;;;;4384261;32;20081;-77
2024/01/10 01:14:25;;;;;;;3.55;2.78;;;-5.80;99.90;;;;;;4387046;32;20078;-77
2024/01/10 01:16:51;;;;;;;2.78;2.55;;;-5.90;99.90;;;;;;4385781;32;20155;-78
2024/01/10 01:19:17;;;;;;;3.92;2.50;;;-6.00;99.90;;;;;;4385206;32;20081;-77
2024/01/10 01:21:43;;;;;;;1.55;1.45;;;-5.90;99.90;;;;;;4383777;32;20552;-77
2024/01/10 01:24:08;;;;;;;1.40;1.30;;;-6.00;99.90;;;;;;4396162;32;20066;-77
2024/01/10 01:26:34;;;;;;;4.70;1.87;;;-6.00;99.90;;;;;;4398696;32;20115;-77
2024/01/10 01:28:59;;;;;;;4.07;3.58;;;-6.00;99.90;;;;;;4397938;32;20091;-77
2024/01/10 01:31:25;;;;;;;3.90;3.00;;;-6.20;99.90;;;;;;4401414;32;20062;-77
2024/01/10 01:33:50;;;;;;;2.42;1.80;;;-6.10;99.90;;;;;;4401207;32;20423;-77
2024/01/10 01:36:16;;;;;;;3.55;3.25;;;-6.10;99.90;;;;;;4397659;32;20070;-77
2024/01/10 01:38:41;;;;;;;1.87;1.73;;;-6.00;99.90;;;;;;4396400;32;20125;-77
2024/01/10 01:41:07;;;;;;;4.50;2.25;;;-6.00;99.90;;;;;;4397457;32;20057;-77
2024/01/10 01:43:33;;;;;;;2.50;2.30;;;-6.10;99.90;;;;;;4394819;32;20102;-77
2024/01/10 01:45:59;;;;;;;4.95;4.25;;;-6.20;99.90;;;;;;4400986;32;20073;-78
2024/01/10 01:48:26;;;;;;;1.75;1.65;;;-6.30;99.90;;;;;;4396736;32;20078;-76
2024/01/10 01:50:56;;;;;;;3.87;3.25;;;-6.20;99.90;;;;;;4399446;32;20467;-77
2024/01/10 01:53:22;;;;;;;;;;;-6.20;99.90;;;;;;4397234;32;20476;-76
2024/01/10 01:55:48;;;;;;;0.60;0.60;;;-6.30;99.90;;;;;;4398010;32;19957;-77
2024/01/10 01:58:13;;;;;;;9.32;4.85;;;-6.30;99.90;;;;;;4400970;32;20054;-77
2024/01/10 02:00:39;;;;;;;5.47;3.35;;;-6.20;99.90;;;;;;4395445;32;20078;-76
2024/01/10 02:03:06;;;;;;;4.47;3.03;;;-6.20;99.90;;;;;;4400966;32;20062;-77
2024/01/10 02:19:00;;;;;;;18.23;5.93;;;-6.00;99.90;;;;;;4380187;32;21675;-77
2024/01/10 02:19:19;;;;;;;3.30;2.97;;;-5.90;99.90;;;;;;4368733;32;20097;-77
2024/01/10 02:21:46;;;;;;;3.15;2.60;;;-6.00;99.90;;;;;;4393276;32;20055;-77
2024/01/10 02:24:12;;;;;;;4.05;3.15;;;-5.90;99.90;;;;;;4397922;32;20605;-78
2024/01/10 02:26:38;;;;;;;2.85;2.25;;;-5.90;99.90;;;;;;4394482;32;20081;-76
2024/01/10 02:29:03;;;;;;;3.37;2.25;;;-5.90;99.90;;;;;;4395355;32;20158;-77
2024/01/10 02:31:29;;;;;;;5.40;4.20;;;-5.90;99.90;;;;;;4395708;32;20086;-77
2024/01/10 02:33:54;;;;;;;5.30;2.85;;;-5.90;99.90;;;;;;4388451;32;20070;-75
2024/01/10 02:36:20;;;;;;;9.18;6.40;;;-5.90;99.90;;;;;;4381945;32;20069;-75
2024/01/10 02:38:45;;;;;;;2.12;1.95;;;-5.90;99.90;;;;;;4384066;32;20129;-75
2024/01/10 02:41:11;;;;;;;2.42;1.75;;;-6.00;99.90;;;;;;4379942;32;20090;-75
2024/01/10 02:43:36;;;;;;;1.42;1.33;;;-5.90;99.90;;;;;;4381327;32;20066;-75
2024/01/10 02:46:02;;;;;;;4.82;2.15;;;-6.10;99.90;;;;;;4384738;32;20101;-76
2024/01/10 02:48:27;;;;;;;0.82;0.82;;;-6.00;99.90;;;;;;4385394;32;20149;-75
2024/01/10 02:50:54;;;;;;;1.40;1.33;;;-6.00;99.90;;;;;;4379501;32;20492;-75
2024/01/10 02:53:20;;;;;;;11.27;4.37;;;-6.00;99.90;;;;;;4383053;32;20525;-76
2024/01/10 02:55:46;;;;;;;2.40;2.25;;;-6.10;99.90;;;;;;4382033;32;20081;-75
2024/01/10 02:58:11;;;;;;;20.80;4.35;;;-6.10;99.90;;;;;;4384961;32;20087;-76
2024/01/10 03:00:37;;;;;;;4.05;3.65;;;-6.10;99.90;;;;;;4384356;32;20066;-75
2024/01/10 03:03:03;;;;;;;1.85;1.75;;;-6.00;99.90;;;;;;4384878;32;20062;-76
2024/01/10 03:05:29;;;;;;;2.78;2.58;;;-6.00;99.90;;;;;;4382204;32;20456;-76
2024/01/10 03:07:54;;;;;;;5.43;3.97;;;-6.00;99.90;;;;;;4384484;32;20082;-78
2024/01/10 03:10:20;;;;;;;6.62;4.00;;;-6.00;99.90;;;;;;4380408;32;20073;-74
2024/01/10 03:12:45;;;;;;;2.47;2.25;;;-6.00;99.90;;;;;;4381565;32;20132;-75
2024/01/10 03:15:11;;;;;;;0.90;0.90;;;-6.00;99.90;;;;;;4383080;32;20090;-75
2024/01/10 03:17:36;;;;;;;1.87;1.60;;;-6.00;99.90;;;;;;4387687;32;20451;-77
2024/01/10 03:20:03;;;;;;;7.03;4.53;;;-6.00;99.90;;;;;;4382563;32;20074;-76
2024/01/10 03:22:30;;;;;;;1.52;1.42;;;-6.00;99.90;;;;;;4382453;32;20069;-76
2024/01/10 03:24:56;;;;;;;0.88;0.88;;;-5.90;99.90;;;;;;4385493;32;20597;-76
2024/01/10 03:27:21;;;;;;;2.10;1.27;;;-5.90;99.90;;;;;;4388152;32;20070;-76
2024/01/10 03:29:47;;;;;;;0.93;0.93;;;-5.90;99.90;;;;;;4383059;32;20787;-76
2024/01/10 03:32:13;;;;;;;6.10;3.87;;;-6.00;99.90;;;;;;4382492;32;20110;-75
2024/01/10 03:34:38;;;;;;;1.60;1.50;;;-5.90;99.90;;;;;;4383033;32;20070;-75
2024/01/10 03:37:04;;;;;;;4.22;3.17;;;-5.90;99.90;;;;;;4379272;32;20535;-75
2024/01/10 03:39:30;;;;;;;7.40;3.62;;;-6.00;99.90;;;;;;4382035;32;20117;-75
2024/01/10 03:41:55;;;;;;;8.05;4.45;;;-6.00;99.90;;;;;;4379330;32;20074;-76
2024/01/10 03:44:21;;;;;;;7.90;4.05;;;-6.00;99.90;;;;;;4381078;32;20424;-75
2024/01/10 03:47:34;;;;;;;7.97;5.43;;;-6.10;99.90;;;;;;4386987;32;20067;-76
2024/01/10 03:54:52;;;;;;;1.60;1.50;;;-6.10;99.90;;;;;;4359855;32;20518;-75
2024/01/10 03:56:37;;;;;;;2.42;2.00;;;-6.00;99.90;;;;;;4367093;32;20082;-76
2024/01/10 03:59:03;;;;;;;1.27;1.17;;;-6.10;99.90;;;;;;4380602;32;20101;-76
2024/01/10 04:01:29;;;;;;;4.80;3.95;;;-6.10;99.90;;;;;;4381540;32;20086;-75
2024/01/10 04:03:54;;;;;;;13.40;5.45;;;-6.10;99.90;;;;;;4385501;32;20062;-75
2024/01/10 04:06:20;;;;;;;2.47;2.28;;;-6.20;99.90;;;;;;4380175;32;20070;-75
2024/01/10 04:08:45;;;;;;;5.50;3.80;;;-6.20;99.90;;;;;;4381201;32;20490;-75
2024/01/10 04:11:11;;;;;;;1.15;1.15;;;-6.30;99.90;;;;;;4382381;32;20082;-76
2024/01/10 04:13:36;;;;;;;1.65;1.55;;;-6.20;99.90;;;;;;4382441;32;20070;-76
2024/01/10 04:16:02;;;;;;;1.23;1.17;;;-6.20;99.90;;;;;;4381466;32;20085;-76
2024/01/10 04:18:27;;;;;;;3.95;3.60;;;-6.20;99.90;;;;;;4383970;32;20058;-76
2024/01/10 04:20:53;;;;;;;2.40;2.20;;;-6.20;99.90;;;;;;4384553;32;20130;-76
2024/01/10 04:23:18;;;;;;;0.90;0.90;;;-6.20;99.90;;;;;;4383460;32;20062;-76
2024/01/10 04:25:44;;;;;;;4.85;3.83;;;-6.20;99.90;;;;;;4383539;32;20475;-76
2024/01/10 04:28:09;;;;;;;2.50;2.30;;;-6.20;99.90;;;;;;4382032;32;20066;-77
2024/01/10 04:30:34;;;;;;;4.12;3.60;;;-6.20;99.90;;;;;;4385170;32;20119;-76
2024/01/10 04:33:00;;;;;;;3.37;3.03;;;-6.10;99.90;;;;;;4382599;32;20125;-77
2024/01/10 04:35:25;;;;;;;1.48;1.37;;;-6.10;99.90;;;;;;4382358;32;20074;-76
2024/01/10 04:37:51;;;;;;;4.28;2.50;;;-6.10;99.90;;;;;;4379630;32;21234;-76
2024/01/10 04:40:17;;;;;;;8.10;3.47;;;-6.20;99.90;;;;;;4383416;32;20086;-76
2024/01/10 04:42:42;;;;;;;4.45;2.50;;;-6.30;99.90;;;;;;4383873;32;20081;-76
2024/01/10 04:45:08;;;;;;;12.10;4.18;;;-6.30;99.90;;;;;;4384742;32;20098;-76
2024/01/10 04:47:34;;;;;;;3.45;2.42;;;-6.40;99.90;;;;;;4383936;32;20613;-76
2024/01/10 04:49:59;;;;;;;2.95;2.70;;;-6.40;99.90;;;;;;4386755;32;20071;-76
2024/01/10 04:52:25;;;;;;;3.25;2.87;;;-6.50;99.90;;;;;;4385797;32;20083;-76
2024/01/10 04:54:50;;;;;;;10.35;4.37;;;-6.50;99.90;;;;;;4385992;32;20066;-78
2024/01/10 04:57:16;;;;;;;3.55;2.08;;;-6.60;99.90;;;;;;4383145;32;20074;-78
2024/01/10 04:59:41;;;;;;;4.85;2.55;;;-6.60;99.90;;;;;;4386697;32;20078;-78
2024/01/10 05:02:07;;;;;;;1.50;1.42;;;-6.50;99.90;;;;;;4387846;32;20120;-77
2024/01/10 05:04:33;;;;;;;3.95;3.28;;;-6.40;99.90;;;;;;4386491;32;20498;-78
2024/01/10 05:06:58;;;;;;;4.60;4.00;;;-6.30;99.90;;;;;;4384612;32;20078;-78
2024/01/10 05:09:24;;;;;;;5.03;2.50;;;-6.20;99.90;;;;;;4384725;32;20091;-77
2024/01/10 05:11:51;;;;;;;3.15;2.33;;;-6.30;99.90;;;;;;4386342;32;20411;-78
2024/01/10 05:14:19;;;;;;;3.67;3.37;;;-6.20;99.90;;;;;;4384260;32;20090;-78
2024/01/10 05:16:45;;;;;;;10.60;6.43;;;-6.20;99.90;;;;;;4384339;32;20072;-78
2024/01/10 05:19:10;;;;;;;2.37;2.15;;;-6.20;99.90;;;;;;4384338;32;20071;-78
2024/01/10 05:21:36;;;;;;;10.07;4.10;;;-6.30;99.90;;;;;;4376193;32;20588;-78
2024/01/10 05:24:01;;;;;;;2.80;2.58;;;-6.20;99.90;;;;;;4385501;32;20069;-78
2024/01/10 05:26:27;;;;;;;0.90;0.90;;;-6.20;99.90;;;;;;4383860;32;20062;-78
2024/01/10 05:28:52;;;;;;;4.30;2.80;;;-6.30;99.90;;;;;;4386711;32;20145;-78
2024/01/10 05:31:18;;;;;;;2.35;2.20;;;-6.30;99.90;;;;;;4384041;32;20074;-78
2024/01/10 05:33:43;;;;;;;1.35;1.30;;;-6.30;99.90;;;;;;4386460;32;20517;-78
2024/01/10 05:36:11;;;;;;;4.72;3.08;;;-6.20;99.90;;;;;;4383486;32;20125;-78
2024/01/10 05:38:37;;;;;;;0.70;0.70;;;-6.30;99.90;;;;;;4381338;32;20082;-77
2024/01/10 05:41:02;;;;;;;4.00;2.87;;;-6.30;99.90;;;;;;4385422;32;20071;-77
2024/01/10 05:43:28;;;;;;;1.35;1.25;;;-6.30;99.90;;;;;;4386868;32;20129;-77
2024/01/10 05:45:53;;;;;;;1.35;1.35;;;-6.30;99.90;;;;;;4381122;32;20546;-77
2024/01/10 05:48:19;;;;;;;0.80;0.80;;;-6.30;99.90;;;;;;4382615;32;20083;-78
2024/01/10 05:50:44;;;;;;;2.50;1.83;;;-6.30;99.90;;;;;;4386039;32;20125;-78
2024/01/10 05:53:12;;;;;;;1.58;1.48;;;-6.30;99.90;;;;;;4376882;32;20537;-78
2024/01/10 05:55:38;;;;;;;1.05;1.02;;;-6.20;99.90;;;;;;4381895;32;20071;-78
2024/01/10 05:58:04;;;;;;;1.15;1.15;;;-6.20;99.90;;;;;;4384364;32;20083;-78
2024/01/10 06:00:29;;;;;;;6.28;4.97;;;-6.20;99.90;;;;;;4382694;32;20070;-78
2024/01/10 06:02:54;;;;;;;1.42;1.33;;;-6.30;99.90;;;;;;4386865;32;20099;-76
2024/01/10 06:05:20;;;;;;;2.15;2.00;;;-6.30;99.90;;;;;;4404154;32;20054;-77
2024/01/10 06:07:46;;;;;;;3.58;3.22;;;-6.30;99.90;;;;;;4391997;32;20090;-76
2024/01/10 06:10:11;;;;;;;3.30;2.05;;;-6.30;99.90;;;;;;4403055;32;20054;-76
2024/01/10 06:12:38;;;;;;;0.70;0.70;;;-6.30;99.90;;;;;;4399591;32;20062;-76
2024/01/10 06:15:04;;;;;;;3.62;2.78;;;-6.30;99.90;;;;;;4393949;32;20071;-76
2024/01/10 06:17:31;;;;;;;2.05;1.90;;;-6.40;99.90;;;;;;4400038;32;20126;-76
2024/01/10 06:19:59;;;;;;;1.25;1.23;;;-6.40;99.90;;;;;;4395202;32;20168;-76
2024/01/10 06:22:26;;;;;;;11.20;5.93;;;-6.40;99.90;;;;;;4389846;32;20086;-76
2024/01/10 06:24:53;;;;;;;1.20;1.20;;;-6.40;99.90;;;;;;4399662;32;20062;-76
2024/01/10 06:27:18;;;;;;;8.07;4.70;;;-6.40;99.90;;;;;;4384200;32;20477;-76
2024/01/10 06:29:44;;;;;;;2.17;2.03;;;-6.30;99.90;;;;;;4398647;32;20073;-75
2024/01/10 06:32:14;;;;;;;1.50;1.40;;;-6.40;99.90;;;;;;4398379;32;20098;-76
2024/01/10 06:34:40;;;;;;;0.73;0.73;;;-6.30;99.90;;;;;;4388365;32;20086;-77
2024/01/10 06:37:07;;;;;;;12.10;3.15;;;-6.40;99.90;;;;;;4380320;32;20082;-76
2024/01/10 06:39:33;;;;;;;5.85;5.25;;;-6.40;99.90;;;;;;4379387;32;21115;-77
2024/01/10 06:41:59;;;;;;;1.12;1.12;;;-6.20;99.90;;;;;;4378629;32;20078;-77
2024/01/10 06:44:27;;;;;;;1.00;1.00;;;-6.20;99.90;;;;;;4376947;32;20133;-81
2024/01/10 06:46:53;;;;;;;1.67;1.58;;;-6.30;99.90;;;;;;4378501;32;20126;-79
2024/01/10 06:49:18;;;;;;;1.65;1.55;;;-6.30;99.90;;;;;;4372837;32;20085;-76
2024/01/10 06:51:45;;;;;;;0.80;0.80;;;-6.30;99.90;;;;;;4378169;32;20082;-78
2024/01/10 06:54:10;;;;;;;8.02;3.90;;;-6.30;99.90;;;;;;4366134;32;20078;-75
2024/01/10 06:56:37;;;;;;;1.12;1.12;;;-6.20;99.90;;;;;;4372240;32;20413;-77
2024/01/10 06:59:03;;;;;;;1.90;1.70;;;-6.40;99.90;;;;;;4354756;32;20248;-77
2024/01/10 07:01:29;;;;;;;20.25;4.62;;;-6.30;99.90;;;;;;4358287;32;20078;-76
2024/01/10 07:03:54;;;;;;;2.28;2.10;;;-6.30;99.90;;;;;;4363636;32;20090;-77
2024/01/10 07:06:20;;;;;;;1.62;1.50;;;-6.30;99.90;;;;;;4347168;32;20118;-77
2024/01/10 07:08:49;;;;;;;13.95;4.03;;;-6.30;99.90;;;;;;4350027;32;20786;-77
2024/01/10 07:11:17;;;;;;;1.70;1.60;;;-6.30;99.90;;;;;;4353231;32;20189;-77
2024/01/10 07:13:43;;;;;;;1.25;1.25;;;-6.30;99.90;;;;;;4345143;32;20073;-76
2024/01/10 07:16:09;;;;;;;9.80;5.62;;;-6.20;99.90;;;;;;4337951;32;20209;-77
2024/01/10 07:18:34;;;;;;;18.50;4.15;;;-6.20;99.90;;;;;;4335991;32;20783;-77
2024/01/10 07:21:01;;;;;;;3.17;2.90;;;-6.20;99.90;;;;;;4335359;32;20106;-77
2024/01/10 07:23:27;;;;;;;8.93;4.10;;;-6.20;99.90;;;;;;4343542;32;20522;-77
2024/01/10 07:25:53;;;;;;;1.23;1.20;;;-6.10;99.90;;;;;;4346437;32;20094;-77
2024/01/10 07:28:19;;;;;;;7.75;4.62;;;-6.10;99.90;;;;;;4352521;32;20146;-76
2024/01/10 07:30:45;;;;;;;2.08;1.98;;;-6.10;99.90;;;;;;4360117;32;21263;-77
2024/01/10 07:33:12;;;;;;;4.47;1.95;;;-6.20;99.90;;;;;;4357071;32;20518;-78
2024/01/10 07:35:38;;;;;;;4.03;3.12;;;-6.40;99.90;;;;;;4354339;32;20081;-77
2024/01/10 07:38:07;;;;;;;2.83;2.10;;;-6.40;99.90;;;;;;4351584;32;20802;-77
2024/01/10 07:40:33;;;;;;;11.85;5.87;;;-6.40;99.90;;;;;;4357114;32;20185;-78
2024/01/10 07:42:59;;;;;;;15.10;6.32;;;-6.40;99.90;;;;;;4366537;32;20631;-77
2024/01/10 07:45:25;;;;;;;1.85;1.75;;;-6.40;99.90;;;;;;4352218;32;20115;-78
2024/01/10 07:47:50;;;;;;;1.15;1.15;;;-6.40;99.90;;;;;;4354628;32;20173;-79
2024/01/10 07:50:16;;;;;;;1.33;1.25;;;-6.30;99.90;;;;;;4359275;32;20078;-76
2024/01/10 07:52:43;;;;;;;4.22;3.50;;;-6.30;99.90;;;;;;4359126;32;20074;-77
2024/01/10 07:55:10;;;;;;;1.75;1.65;;;-6.20;99.90;;;;;;4359759;32;20241;-77
2024/01/10 07:57:36;;;;;;;4.07;3.55;;;-6.20;99.90;;;;;;4368881;32;20999;-80
2024/01/10 08:00:04;;;;;;;1.98;1.85;;;-6.10;99.90;;;;;;4370437;32;20078;-80
2024/01/10 08:02:33;;;;;;;1.80;1.70;;;-6.10;99.90;;;;;;4370318;32;20086;-78
2024/01/10 08:05:05;;;;;;;23.20;4.05;;;-6.10;99.90;;;;;;4365266;32;20129;-78
2024/01/10 08:07:32;;;;;;;5.05;2.80;;;-6.00;99.90;;;;;;4365033;32;20630;-79
2024/01/10 08:09:59;;;;;;;2.15;1.95;;;-5.90;99.90;;;;;;4366379;32;20114;-78
2024/01/10 08:12:24;;;;;;;1.42;1.33;;;-5.80;99.90;;;;;;4352825;32;20602;-78
2024/01/10 08:14:50;;;;;;;1.92;1.40;;;-5.70;99.90;;;;;;4332036;32;20094;-78
2024/01/10 08:17:16;;;;;;;5.32;2.08;;;-5.70;99.90;;;;;;4339809;32;20141;-78
2024/01/10 08:19:42;;;;;;;6.20;4.25;;;-5.60;99.90;;;;;;4360217;32;20074;-78
2024/01/10 08:22:07;;;;;;;7.68;5.07;;;-5.50;99.90;;;;;;4358278;32;20090;-79
2024/01/10 08:24:34;;;;;;;13.27;2.90;;;-5.50;99.90;;;;;;4362767;32;20283;-78
2024/01/10 08:27:00;;;;;;;0.55;0.55;;;-5.40;99.90;;;;;;4366243;32;21974;-77
2024/01/10 08:29:31;;;;;;;3.00;2.15;;;-5.30;99.90;;;;;;4372239;32;20122;-79
2024/01/10 08:31:57;;;;;;;4.70;1.70;;;-5.30;99.90;;;;;;4358097;32;20175;-79
2024/01/10 08:34:23;;;;;;;3.80;3.30;;;-5.20;99.90;;;;;;4345254;32;20856;-78
2024/01/10 08:36:50;;;;;;;3.08;2.17;;;-5.20;99.90;;;;;;4358958;32;20114;-80
2024/01/10 08:39:16;;;;;;;10.02;6.35;;;-5.10;99.90;;;;;;4360916;32;20711;-77
2024/01/10 08:41:44;;;;;;;2.60;2.40;;;-5.00;99.90;;;;;;4355926;32;20098;-79
2024/01/10 08:44:10;;;;;;;4.32;3.42;;;-5.00;99.90;;;;;;4367665;32;20590;-78
2024/01/10 08:46:37;;;;;;;5.20;3.78;;;-4.80;99.90;;;;;;4355429;32;20597;-79
2024/01/10 08:49:03;;;;;;;5.32;3.28;;;-4.70;99.90;;;;;;4338297;32;20534;-80
2024/01/10 08:51:28;;;;;;;3.53;2.65;;;-4.70;99.90;;;;;;4343512;32;20089;-78
2024/01/10 08:53:54;;;;;;;2.55;2.35;;;-4.60;99.90;;;;;;4346269;32;20078;-81
2024/01/10 08:56:19;;;;;;;5.60;3.97;;;-4.50;99.90;;;;;;4327809;32;20542;-78
2024/01/10 08:58:45;;;;;;;1.55;1.45;;;-4.50;99.90;;;;;;4342871;32;20087;-76
2024/01/10 09:01:11;;;;;;;3.65;2.42;;;-4.40;99.90;;;;;;4330997;32;21485;-76
2024/01/10 09:03:37;;;;;;;6.62;3.55;;;-4.30;99.90;;;;;;4347519;32;21504;-76
2024/01/10 09:06:04;;;;;;;5.87;3.50;;;-4.20;99.90;;;;;;4351152;32;20821;-76
2024/01/10 09:08:30;;;;;;;3.53;2.42;;;-4.10;99.90;;;;;;4345818;32;20626;-76
2024/01/10 09:10:55;;;;;;;2.60;2.17;;;-4.10;99.90;;;;;;4353409;32;20091;-75
2024/01/10 09:13:21;;;;;;;3.37;2.05;;;-4.00;99.90;;;;;;4356363;32;20106;-76
2024/01/10 09:15:46;;;;;;;2.17;1.98;;;-3.90;99.90;;;;;;4350659;32;20110;-76
2024/01/10 09:18:12;;;;;;;7.75;3.70;;;-3.90;99.90;;;;;;4348471;32;20099;-77
2024/01/10 09:20:38;;;;;;;2.00;1.90;;;-3.80;99.90;;;;;;4345523;32;20565;-76
2024/01/10 09:23:05;;;;;;;5.25;3.75;;;-3.70;99.90;;;;;;4347378;32;21171;-76
2024/01/10 09:25:30;;;;;;;3.97;3.47;;;-3.70;99.90;;;;;;4361396;32;20214;-77
2024/01/10 09:27:57;;;;;;;4.22;2.20;;;-3.60;99.90;;;;;;4349262;32;20239;-78
2024/01/10 09:30:23;;;;;;;6.22;4.10;;;-3.50;99.90;;;;;;4355063;32;20754;-76
2024/01/10 09:32:49;;;;;;;6.68;3.67;;;-3.50;99.90;;;;;;4354369;32;20085;-79
2024/01/10 09:35:15;;;;;;;3.85;3.28;;;-3.50;99.90;;;;;;4363279;32;20116;-76
2024/01/10 09:37:41;;;;;;;0.93;0.90;;;-3.30;99.90;;;;;;4361792;32;20204;-78
2024/01/10 09:40:07;;;;;;;2.67;2.22;;;-3.20;99.90;;;;;;4368646;32;20098;-76
2024/01/10 09:42:35;;;;;;;2.75;1.62;;;-3.10;99.90;;;;;;4362935;32;20744;-75
2024/01/10 09:45:03;;;;;;;1.70;1.37;;;-3.00;99.90;;;;;;4350151;32;20090;-77
2024/01/10 09:47:28;;;;;;;8.43;3.17;;;-2.90;99.90;;;;;;4355764;32;20994;-77
2024/01/10 09:49:54;;;;;;;3.70;2.42;;;-2.80;99.90;;;;;;4357003;32;21016;-78
2024/01/10 09:52:25;;;;;;;3.75;2.33;;;-2.70;99.90;;;;;;4351153;32;20111;-77
2024/01/10 09:54:56;;;;;;;9.07;5.62;;;-2.70;99.90;;;;;;4351210;32;20530;-77
2024/01/10 09:57:23;;;;;;;2.95;2.20;;;-2.60;99.90;;;;;;4345742;32;20514;-77
2024/01/10 09:59:51;;;;;;;25.67;6.00;;;-2.40;99.90;;;;;;4337600;32;20755;-77
2024/01/10 10:02:18;;;;;;;1.62;1.52;;;-2.40;99.90;;;;;;4335439;32;20170;-76
2024/01/10 10:04:54;;;;;;;5.60;3.90;;;-2.20;99.90;;;;;;4345844;32;20094;-76
2024/01/10 10:07:21;;;;;;;12.00;5.53;;;-2.10;99.90;;;;;;4350294;32;20086;-77
2024/01/10 10:09:47;;;;;;;3.20;2.80;;;-2.00;99.90;;;;;;4355111;32;20105;-76
2024/01/10 10:12:13;;;;;;;1.90;1.80;;;-1.90;99.90;;;;;;4340520;32;20103;-77
2024/01/10 10:14:39;;;;;;;6.72;3.67;;;-1.80;99.90;;;;;;4361927;32;20526;-77
2024/01/10 10:17:20;;;;;;;3.95;2.85;;;-1.80;99.90;;;;;;4365449;32;20086;-79
2024/01/10 10:19:47;;;;;;;1.25;1.23;;;-1.80;99.90;;;;;;4367900;32;20133;-78
2024/01/10 10:22:14;;;;;;;2.65;2.33;;;-1.80;99.90;;;;;;4367075;32;20550;-76
2024/01/10 10:24:41;;;;;;;2.20;2.05;;;-1.80;99.90;;;;;;4360821;32;20989;-76
2024/01/10 10:27:09;;;;;;;1.92;1.83;;;-1.70;99.90;;;;;;4360740;32;20118;-77
2024/01/10 10:29:37;;;;;;;4.57;3.78;;;-1.70;99.90;;;;;;4368034;32;20091;-78
2024/01/10 10:32:03;;;;;;;40.78;6.43;;;-1.60;99.90;;;;;;4366851;32;20111;-78
2024/01/10 10:34:32;;;;;;;1.08;1.05;;;-1.50;99.90;;;;;;4367004;32;20250;-77
2024/01/10 10:36:58;;;;;;;2.95;2.75;;;-1.60;99.90;;;;;;4367646;32;20105;-78
2024/01/10 10:39:25;;;;;;;11.80;5.62;;;-1.60;99.90;;;;;;4367081;32;20558;-78
2024/01/10 10:41:54;;;;;;;2.90;1.95;;;-1.60;99.90;;;;;;4371628;32;20099;-77
2024/01/10 10:44:23;;;;;;;5.55;4.22;;;-1.40;99.90;;;;;;4370669;32;20272;-75
2024/01/10 10:46:52;;;;;;;1.62;1.55;;;-1.30;99.90;;;;;;4370951;32;20082;-80
2024/01/10 10:49:23;;;;;;;3.50;2.35;;;-1.30;99.90;;;;;;4364320;32;20082;-78
2024/01/10 10:51:50;;;;;;;0.90;0.90;;;-1.30;99.90;;;;;;4371729;32;20098;-76
2024/01/10 10:54:18;;;;;;;2.60;2.40;;;-1.10;99.90;;;;;;4354738;32;21407;-77
2024/01/10 10:56:44;;;;;;;5.32;3.75;;;-1.10;99.90;;;;;;4364009;32;20178;-78
2024/01/10 10:59:12;;;;;;;3.78;3.10;;;-1.10;99.90;;;;;;4370553;32;20510;-79
2024/01/10 11:01:40;;;;;;;1.48;1.37;;;-1.00;99.90;;;;;;4373846;32;20102;-75
2024/01/10 11:04:07;;;;;;;4.90;2.10;;;-0.90;99.90;;;;;;4373525;32;20094;-77
2024/01/10 11:06:34;;;;;;;7.30;2.85;;;-1.00;99.90;;;;;;4360604;32;20106;-78
2024/01/10 11:09:05;;;;;;;1.58;1.48;;;-1.10;99.90;;;;;;4370118;32;20090;-76
2024/01/10 11:11:46;;;;;;;3.70;2.15;;;-1.10;99.90;;;;;;4361087;32;20098;-74
2024/01/10 11:14:40;;;;;;;1.48;1.37;;;-0.90;99.90;;;;;;4360040;32;20114;-78
2024/01/10 11:17:25;;;;;;;2.87;2.47;;;-0.80;99.90;;;;;;4356875;32;20102;-77
2024/01/10 11:20:16;;;;;;;6.40;4.03;;;-0.70;99.90;;;;;;4347176;32;20601;-77
2024/01/10 11:23:11;;;;;;;19.90;5.28;;;-0.60;99.90;;;;;;4350318;32;20156;-77
2024/01/10 11:25:36;;;;;;;3.58;2.87;;;-0.40;99.90;;;;;;4341258;32;20120;-77
2024/01/10 11:28:04;;;;;;;12.48;3.92;;;-0.20;99.90;;;;;;4362802;32;20058;-77
2024/01/10 11:30:48;;;;;;;2.87;2.62;;;-0.10;99.90;;;;;;4368726;32;20086;-76
2024/01/10 11:33:31;;;;;;;2.17;2.00;;;-0.10;99.90;;;;;;4371755;32;20201;-77
2024/01/10 11:36:17;;;;;;;2.33;2.12;;;0.00;99.90;;;;;;4359798;32;20075;-78
2024/01/10 11:38:54;;;;;;;4.50;3.42;;;0.20;99.90;;;;;;4365479;32;20086;-77
2024/01/10 11:41:25;;;;;;;4.40;2.67;;;0.40;99.90;;;;;;4365651;32;20089;-77
2024/01/10 11:44:17;;;;;;;2.33;2.12;;;0.60;99.90;;;;;;4347398;32;20114;-77
2024/01/10 11:46:47;;;;;;;2.83;2.60;;;0.60;99.90;;;;;;4356591;32;20098;-78
2024/01/10 11:49:17;;;;;;;7.18;2.80;;;0.60;99.90;;;;;;4366709;32;20526;-77
2024/01/10 11:51:44;;;;;;;3.45;2.12;;;0.80;99.90;;;;;;4354851;32;300299;-80
2024/01/10 11:54:37;;;;;;;24.40;3.62;;;1.10;99.90;;;;;;4358809;32;20189;-78
2024/01/10 11:57:07;;;;;;;1.15;1.12;;;1.20;99.90;;;;;;4348363;32;20130;-81
2024/01/10 11:59:34;;;;;;;5.72;4.25;;;1.00;99.90;;;;;;4357998;32;20105;-80
2024/01/10 12:02:00;;;;;;;3.60;2.33;;;0.90;99.90;;;;;;4359345;32;20073;-81
2024/01/10 12:04:32;;;;;;;4.03;3.40;;;1.30;99.90;;;;;;4366181;32;20858;-79
2024/01/10 12:06:58;;;;;;;7.43;3.10;;;1.60;99.90;;;;;;4362693;32;20078;-78
2024/01/10 12:09:24;;;;;;;33.38;2.80;;;1.80;99.90;;;;;;4358625;32;20114;-81
2024/01/10 12:11:52;;;;;;;10.80;4.80;;;2.10;99.90;;;;;;4369960;32;20083;-80
2024/01/10 12:14:20;;;;;;;1.87;1.55;;;2.40;99.90;;;;;;4362084;32;20074;-79
2024/01/10 12:16:46;;;;;;;2.92;2.15;;;2.40;99.90;;;;;;4350716;32;20676;-79
2024/01/10 12:19:13;;;;;;;5.05;2.25;;;2.70;99.00;;;;;;4352019;32;20102;-79
2024/01/10 12:21:39;;;;;;;2.05;1.85;;;2.70;98.70;;;;;;4362479;32;20740;-79
2024/01/10 12:24:06;;;;;;;3.60;2.45;;;2.80;98.90;;;;;;4359139;32;20542;-80
2024/01/10 12:26:31;;;;;;;5.70;3.45;;;3.10;97.50;;;;;;4344213;32;20102;-82
2024/01/10 12:28:58;;;;;;;4.20;3.53;;;3.00;97.10;;;;;;4360391;32;20085;-79
2024/01/10 12:31:27;;;;;;;5.20;3.17;;;3.10;96.80;;;;;;4362723;32;20089;-79
2024/01/10 12:33:56;;;;;;;2.75;2.53;;;3.10;96.70;;;;;;4345505;32;20118;-81
2024/01/10 12:36:22;;;;;;;3.85;2.83;;;3.40;96.50;;;;;;4366697;32;20982;-80
2024/01/10 12:38:48;;;;;;;2.55;2.35;;;3.50;95.30;;;;;;4356102;32;20086;-80
2024/01/10 12:41:16;;;;;;;4.20;3.20;;;3.50;95.20;;;;;;4351797;32;20101;-80
2024/01/10 12:43:43;;;;;;;4.78;3.17;;;3.80;95.20;;;;;;4359553;32;20121;-79
2024/01/10 12:46:10;;;;;;;4.68;3.37;;;3.90;95.70;;;;;;4353651;32;20098;-81
2024/01/10 12:48:41;;;;;;;13.13;5.43;;;3.80;94.40;;;;;;4364851;32;20082;-80
2024/01/10 12:51:08;;;;;;;5.40;4.05;;;3.90;94.20;;;;;;4371646;32;20498;-82
2024/01/10 12:53:39;;;;;;;34.60;3.42;;;3.80;94.80;;;;;;4371245;32;21444;-78
2024/01/10 12:56:13;;;;;;;5.93;3.83;;;4.10;95.20;;;;;;4357054;32;20452;-80
2024/01/10 12:58:41;;;;;;;2.03;1.85;;;4.40;94.50;;;;;;4353526;32;20135;-80
2024/01/10 13:01:08;;;;;;;2.08;1.83;;;4.10;94.10;;;;;;4367036;32;20530;-79
2024/01/10 13:03:34;;;;;;;2.92;2.17;;;4.30;93.80;;;;;;4366216;32;20081;-79